Terminal Aerodrome Forecast
Issued by NWS Charleston, WV

Current Version | Previous Version | Graphics & Text | Print | Product List | Glossary On
Versions: 1 2 3 4 5 6 7 8 9 10 11 12 13 14 15 16 17 18 19 20 21 22
829
FTUS41 KRLX 100304 AAA
TAFEKN
TAF AMD
KEKN 100304Z 1003/1024 27009G18KT 2SM -SHSN OVC015
     FM101900 26012G18KT 4SM -SHSN OVC025
     FM102300 29010G15KT 6SM -SHSN OVC025=

USA.gov is the U.S. government's official web portal to all federal, state and local government web resources and services.